Time;durP1;ratioP1;P1;durP2;ratioP2;P2;SDS_P1;SDS_P2;PMS_P1;PMS_P2;Temp;Humidity;BMP_temperature;BMP_pressure;BME280_temperature;BME280_humidity;BME280_pressure;Samples;Min_cycle;Max_cycle;Signal;HPM_P1;HPM_P2
2022/07/17 00:01:54;;;;;;;3.50;2.08;;;22.20;1.00;;;;;;5089251;28;20032;-76
2022/07/17 00:04:19;;;;;;;4.60;2.63;;;22.10;1.00;;;;;;5090038;28;20109;-78
2022/07/17 00:06:45;;;;;;;4.25;2.28;;;21.90;1.00;;;;;;5090505;28;20097;-78
2022/07/17 00:09:10;;;;;;;4.60;2.42;;;21.80;1.00;;;;;;5092410;28;20177;-78
2022/07/17 00:11:39;;;;;;;5.18;2.42;;;21.80;1.00;;;;;;5071650;28;20031;-78
2022/07/17 00:14:05;;;;;;;4.88;2.13;;;21.80;1.00;;;;;;5090667;28;20035;-78
2022/07/17 00:16:31;;;;;;;4.30;2.47;;;21.80;1.00;;;;;;5090208;28;20024;-78
2022/07/17 00:18:56;;;;;;;4.25;2.22;;;21.60;1.00;;;;;;5089935;28;20585;-78
2022/07/17 00:21:28;;;;;;;3.35;2.40;;;21.60;1.00;;;;;;5090819;28;20028;-78
2022/07/17 00:23:53;;;;;;;3.22;2.40;;;21.50;1.00;;;;;;5090707;28;20063;-78
2022/07/17 00:26:19;;;;;;;4.05;2.30;;;21.40;1.00;;;;;;5072203;28;20067;-78
2022/07/17 00:28:45;;;;;;;2.42;2.22;;;21.40;1.00;;;;;;5089824;28;20032;-77
2022/07/17 00:31:10;;;;;;;2.35;2.10;;;21.40;1.00;;;;;;5090219;28;20086;-78
2022/07/17 00:33:36;;;;;;;3.55;2.78;;;21.40;1.00;;;;;;5089923;28;20024;-78
2022/07/17 00:36:02;;;;;;;2.60;2.40;;;21.30;1.00;;;;;;5092125;28;20028;-77
2022/07/17 00:38:28;;;;;;;4.63;2.38;;;21.20;1.00;;;;;;5090152;28;20073;-78
2022/07/17 00:40:55;;;;;;;2.60;2.40;;;21.20;1.00;;;;;;5088401;28;20035;-78
2022/07/17 00:43:21;;;;;;;3.92;2.50;;;21.20;1.00;;;;;;5089949;28;20028;-78
2022/07/17 00:45:58;;;;;;;3.00;2.47;;;21.20;1.00;;;;;;5090155;28;20154;-78
2022/07/17 00:48:24;;;;;;;3.13;2.72;;;21.20;1.00;;;;;;5090217;28;20388;-78
2022/07/17 00:50:50;;;;;;;3.67;2.50;;;21.20;1.00;;;;;;5089220;28;20039;-78
2022/07/17 00:53:15;;;;;;;2.40;2.20;;;21.00;1.00;;;;;;5090040;28;20020;-77
2022/07/17 00:55:41;;;;;;;2.63;2.20;;;21.10;1.00;;;;;;5089536;28;20030;-78
2022/07/17 00:58:08;;;;;;;3.03;2.40;;;21.10;1.00;;;;;;5089832;28;20439;-78
2022/07/17 01:00:34;;;;;;;3.90;2.47;;;21.10;1.00;;;;;;5089661;28;20039;-78
2022/07/17 01:02:59;;;;;;;3.30;2.35;;;20.90;1.00;;;;;;5091993;28;20028;-77
2022/07/17 01:05:25;;;;;;;3.80;2.42;;;20.90;1.00;;;;;;5089699;28;20415;-78
2022/07/17 01:07:52;;;;;;;5.03;2.28;;;20.80;1.00;;;;;;5089559;28;20040;-77
2022/07/17 01:10:18;;;;;;;5.68;2.55;;;20.60;1.00;;;;;;5089394;28;20036;-78
2022/07/17 01:12:47;;;;;;;5.10;2.60;;;20.70;1.00;;;;;;5089872;28;20439;-77
2022/07/17 01:15:14;;;;;;;4.45;2.55;;;20.70;1.00;;;;;;5091440;28;20056;-77
2022/07/17 01:17:41;;;;;;;3.40;2.53;;;20.60;1.00;;;;;;5088561;28;20027;-78
2022/07/17 01:20:09;;;;;;;4.95;2.50;;;20.60;1.00;;;;;;5090327;28;20028;-77
2022/07/17 01:22:49;;;;;;;5.13;2.50;;;20.60;1.00;;;;;;5090196;28;20039;-78
2022/07/17 01:25:18;;;;;;;3.67;2.20;;;20.50;1.00;;;;;;5093824;28;20028;-78
2022/07/17 01:27:43;;;;;;;2.78;2.25;;;20.40;1.00;;;;;;5093144;28;20762;-78
2022/07/17 01:30:10;;;;;;;2.97;2.55;;;20.40;1.00;;;;;;5095407;28;20061;-78
2022/07/17 01:32:39;;;;;;;3.47;2.42;;;20.40;1.00;;;;;;5092331;28;20534;-77
2022/07/17 01:35:07;;;;;;;3.92;2.65;;;20.10;1.00;;;;;;5093321;28;20032;-78
2022/07/17 01:37:33;;;;;;;3.83;2.40;;;20.20;1.00;;;;;;5093236;28;20039;-77
2022/07/17 01:39:59;;;;;;;3.10;2.30;;;20.20;1.00;;;;;;5093600;28;20028;-78
2022/07/17 01:42:26;;;;;;;3.65;2.25;;;20.20;1.00;;;;;;5093545;28;20507;-77
2022/07/17 01:44:54;;;;;;;2.50;2.17;;;20.00;1.00;;;;;;5093436;28;20020;-78
2022/07/17 01:47:19;;;;;;;3.50;2.55;;;20.00;1.00;;;;;;5092886;28;20024;-77
2022/07/17 01:49:54;;;;;;;4.50;2.47;;;20.10;1.00;;;;;;5093161;28;20035;-78
2022/07/17 01:52:21;;;;;;;3.55;2.55;;;20.10;1.00;;;;;;5093260;28;20024;-78
2022/07/17 01:54:46;;;;;;;5.93;2.30;;;19.90;1.00;;;;;;5093071;28;20146;-77
2022/07/17 01:57:12;;;;;;;2.42;2.13;;;19.80;1.00;;;;;;5095192;28;20024;-77
2022/07/17 01:59:39;;;;;;;4.20;2.50;;;20.00;1.00;;;;;;5091880;28;20480;-78
2022/07/17 02:02:05;;;;;;;5.25;2.47;;;19.90;1.00;;;;;;5092172;28;20561;-78
2022/07/17 02:04:32;;;;;;;3.88;2.90;;;19.80;1.00;;;;;;5092824;28;20034;-78
2022/07/17 02:06:58;;;;;;;3.95;2.33;;;20.00;1.00;;;;;;5091601;28;20776;-78
2022/07/17 02:09:23;;;;;;;2.83;2.50;;;19.90;1.00;;;;;;5093596;28;20074;-77
2022/07/17 02:11:49;;;;;;;4.40;2.30;;;19.80;1.00;;;;;;5094545;28;20507;-78
2022/07/17 02:14:15;;;;;;;4.10;2.50;;;19.70;1.00;;;;;;5092703;28;20066;-78
2022/07/17 02:16:41;;;;;;;4.57;2.50;;;19.60;1.00;;;;;;5092254;28;20070;-77
2022/07/17 02:19:06;;;;;;;5.53;2.38;;;19.50;1.00;;;;;;5074419;28;20522;-78
2022/07/17 02:21:32;;;;;;;2.70;2.50;;;19.60;1.00;;;;;;5092595;28;20454;-78
2022/07/17 02:23:58;;;;;;;2.55;2.20;;;19.40;1.00;;;;;;5095014;28;20059;-77
2022/07/17 02:26:23;;;;;;;2.85;2.55;;;19.40;1.00;;;;;;5092420;28;20032;-78
2022/07/17 02:28:49;;;;;;;2.47;2.28;;;19.50;1.00;;;;;;5092021;28;20044;-77
2022/07/17 02:31:15;;;;;;;2.95;2.40;;;19.30;1.00;;;;;;5092088;28;20024;-77
2022/07/17 02:33:42;;;;;;;4.10;2.35;;;19.30;1.00;;;;;;5091398;28;20041;-77
2022/07/17 02:36:07;;;;;;;5.63;2.60;;;19.40;1.00;;;;;;5094883;28;20024;-77
2022/07/17 02:38:33;;;;;;;4.15;2.53;;;19.40;1.00;;;;;;5090739;28;20457;-78
2022/07/17 02:41:00;;;;;;;5.68;2.58;;;19.30;1.00;;;;;;5092081;28;20463;-78
2022/07/17 02:43:25;;;;;;;3.47;2.40;;;19.30;1.00;;;;;;5092192;28;20028;-77
2022/07/17 02:45:51;;;;;;;4.15;2.25;;;19.40;1.00;;;;;;5090513;28;20100;-78
2022/07/17 02:48:16;;;;;;;4.03;2.58;;;19.40;1.00;;;;;;5093726;28;20036;-77
2022/07/17 02:50:42;;;;;;;2.72;2.53;;;19.20;1.00;;;;;;5092697;28;20012;-78
2022/07/17 02:53:08;;;;;;;3.45;2.50;;;19.20;1.00;;;;;;5091641;28;20028;-78
2022/07/17 02:55:34;;;;;;;3.08;2.50;;;19.20;1.00;;;;;;5092020;28;20032;-77
2022/07/17 02:57:59;;;;;;;3.78;2.40;;;19.20;1.00;;;;;;5091950;28;20024;-77
2022/07/17 03:00:26;;;;;;;2.30;2.10;;;19.10;1.00;;;;;;5091778;28;20032;-77
2022/07/17 03:02:53;;;;;;;5.13;2.47;;;19.00;1.00;;;;;;5091974;28;20028;-78
2022/07/17 03:05:19;;;;;;;4.03;2.35;;;18.80;1.00;;;;;;5091459;28;20028;-77
2022/07/17 03:07:45;;;;;;;4.05;2.30;;;18.90;1.00;;;;;;5091882;28;20024;-77
2022/07/17 03:10:11;;;;;;;3.22;2.47;;;19.00;1.00;;;;;;5091495;28;20035;-77
2022/07/17 03:12:37;;;;;;;4.25;2.67;;;18.80;1.00;;;;;;5091713;28;20120;-77
2022/07/17 03:15:04;;;;;;;2.75;2.40;;;18.50;1.00;;;;;;5093350;28;20106;-77
2022/07/17 03:17:30;;;;;;;4.78;2.53;;;18.50;1.00;;;;;;5089934;28;20368;-77
2022/07/17 03:19:55;;;;;;;2.63;2.25;;;18.70;1.00;;;;;;5091407;28;20038;-77
2022/07/17 03:22:21;;;;;;;2.90;2.28;;;18.70;1.00;;;;;;5091303;28;20039;-77
2022/07/17 03:24:47;;;;;;;4.22;2.65;;;18.60;1.00;;;;;;5090181;28;20031;-78
2022/07/17 03:27:12;;;;;;;3.58;2.45;;;18.70;1.00;;;;;;5092975;28;20020;-77
2022/07/17 03:29:38;;;;;;;3.78;2.50;;;18.70;1.00;;;;;;5090067;28;20052;-77
2022/07/17 03:32:05;;;;;;;3.75;2.30;;;18.50;1.00;;;;;;5091146;28;20028;-77
2022/07/17 03:34:30;;;;;;;3.42;2.40;;;18.60;1.00;;;;;;5091161;28;20115;-77
2022/07/17 03:36:56;;;;;;;2.42;2.20;;;18.50;1.00;;;;;;5091327;28;20060;-77
2022/07/17 03:39:22;;;;;;;2.95;2.38;;;18.50;1.00;;;;;;5091883;28;20016;-77
2022/07/17 03:41:48;;;;;;;3.70;2.60;;;18.40;1.00;;;;;;5092689;28;20496;-79
2022/07/17 03:44:14;;;;;;;3.90;2.35;;;18.20;1.00;;;;;;5090790;28;20099;-77
2022/07/17 03:46:39;;;;;;;2.65;2.45;;;18.30;1.00;;;;;;5090861;28;20114;-77
2022/07/17 03:49:05;;;;;;;2.55;2.35;;;18.30;1.00;;;;;;5091442;28;20020;-77
2022/07/17 03:51:31;;;;;;;4.10;2.83;;;18.40;1.00;;;;;;5091078;28;20036;-78
2022/07/17 03:53:56;;;;;;;4.60;2.55;;;18.50;1.00;;;;;;5092853;28;20413;-77
2022/07/17 03:56:22;;;;;;;7.13;2.55;;;18.40;1.00;;;;;;5088994;28;20032;-77
2022/07/17 03:58:48;;;;;;;2.78;2.20;;;18.20;1.00;;;;;;5090827;28;20024;-76
2022/07/17 04:01:14;;;;;;;2.72;2.50;;;18.20;1.00;;;;;;5090682;28;20066;-77
2022/07/17 04:03:40;;;;;;;4.28;3.05;;;18.20;1.00;;;;;;5071455;28;20028;-77
2022/07/17 04:06:05;;;;;;;2.97;2.55;;;18.20;1.00;;;;;;5088655;28;20070;-78
2022/07/17 04:08:31;;;;;;;3.30;2.58;;;18.40;1.00;;;;;;5091000;28;20017;-77
2022/07/17 04:10:57;;;;;;;3.47;2.92;;;18.20;1.00;;;;;;5090324;28;20028;-78
2022/07/17 04:13:22;;;;;;;4.50;2.40;;;18.00;1.00;;;;;;5090279;28;20502;-78
2022/07/17 04:15:59;;;;;;;2.47;2.28;;;18.20;1.00;;;;;;5090626;28;20039;-77
2022/07/17 04:18:27;;;;;;;7.30;2.60;;;18.00;1.00;;;;;;5090361;28;20024;-77
2022/07/17 04:20:55;;;;;;;3.28;2.63;;;17.90;1.00;;;;;;5092826;28;20115;-77
2022/07/17 04:23:21;;;;;;;6.43;2.80;;;18.00;1.00;;;;;;5090350;28;20020;-77
2022/07/17 04:25:47;;;;;;;3.33;2.55;;;17.90;1.00;;;;;;5090238;28;20082;-77
2022/07/17 04:28:13;;;;;;;4.57;2.47;;;18.00;1.00;;;;;;5089868;28;20046;-78
2022/07/17 04:30:39;;;;;;;3.35;2.45;;;18.10;1.00;;;;;;5090369;28;20024;-77
2022/07/17 04:33:05;;;;;;;3.10;2.60;;;18.20;1.00;;;;;;5092691;28;20050;-77
2022/07/17 04:35:31;;;;;;;6.13;2.63;;;18.10;1.00;;;;;;5088551;28;20542;-77
2022/07/17 04:37:57;;;;;;;4.47;2.67;;;17.80;1.00;;;;;;5090300;28;20024;-77
2022/07/17 04:40:23;;;;;;;3.10;2.70;;;17.80;1.00;;;;;;5089607;28;20016;-78
2022/07/17 04:42:48;;;;;;;4.43;2.78;;;17.90;1.00;;;;;;5088690;28;20028;-77
2022/07/17 04:45:14;;;;;;;7.13;2.83;;;18.10;1.00;;;;;;5091870;28;20035;-77
2022/07/17 04:47:40;;;;;;;3.53;2.72;;;18.00;1.00;;;;;;5090664;28;20032;-77
2022/07/17 04:50:08;;;;;;;4.25;2.58;;;18.00;1.00;;;;;;5089912;28;20017;-77
2022/07/17 04:52:33;;;;;;;6.35;2.58;;;17.90;1.00;;;;;;5089845;28;20021;-78
2022/07/17 04:54:59;;;;;;;4.45;2.60;;;18.00;1.00;;;;;;5089944;28;20148;-77
2022/07/17 04:57:25;;;;;;;2.97;2.60;;;18.10;1.00;;;;;;5089252;28;20111;-77
2022/07/17 04:59:51;;;;;;;4.82;2.53;;;18.00;1.00;;;;;;5091966;28;20032;-77
2022/07/17 05:02:16;;;;;;;3.25;2.78;;;17.90;1.00;;;;;;5089721;28;20411;-77
2022/07/17 05:04:42;;;;;;;3.17;2.55;;;18.10;1.00;;;;;;5089541;28;20016;-77
2022/07/17 05:07:07;;;;;;;3.17;2.63;;;18.10;1.00;;;;;;5090222;28;20024;-77
2022/07/17 05:09:33;;;;;;;5.03;2.80;;;18.00;1.00;;;;;;5089550;28;20028;-77
2022/07/17 05:11:59;;;;;;;4.10;2.83;;;18.10;1.00;;;;;;5091878;28;20082;-77
2022/07/17 05:14:24;;;;;;;5.07;2.85;;;18.10;1.00;;;;;;5088468;28;20358;-78
2022/07/17 05:16:50;;;;;;;5.53;3.20;;;18.20;1.00;;;;;;5089710;28;20039;-77
2022/07/17 05:19:16;;;;;;;4.32;2.65;;;18.10;1.00;;;;;;5089785;28;20020;-77
2022/07/17 05:21:42;;;;;;;3.72;2.58;;;18.30;1.00;;;;;;5090067;28;20040;-77
2022/07/17 05:24:07;;;;;;;4.43;2.60;;;18.50;1.00;;;;;;5091558;28;20059;-77
2022/07/17 05:26:33;;;;;;;4.97;2.60;;;18.50;1.00;;;;;;5089623;28;20463;-77
2022/07/17 05:28:58;;;;;;;4.10;2.80;;;18.50;1.00;;;;;;5089360;28;20085;-77
2022/07/17 05:31:24;;;;;;;3.60;2.60;;;18.20;1.00;;;;;;5089562;28;20032;-77
2022/07/17 05:33:50;;;;;;;6.65;2.75;;;18.30;1.00;;;;;;5089721;28;20020;-78
2022/07/17 05:36:15;;;;;;;2.55;2.30;;;18.40;1.00;;;;;;5090810;28;20032;-77
2022/07/17 05:38:41;;;;;;;3.20;2.67;;;18.50;1.00;;;;;;5089869;28;20082;-77
2022/07/17 05:41:07;;;;;;;4.22;2.70;;;18.60;1.00;;;;;;5089350;28;20434;-77
2022/07/17 05:43:32;;;;;;;3.35;2.35;;;18.70;1.00;;;;;;5089457;28;20056;-78
2022/07/17 05:45:58;;;;;;;3.85;2.60;;;18.70;1.00;;;;;;5089847;28;20411;-78
2022/07/17 05:48:25;;;;;;;6.13;2.83;;;19.00;1.00;;;;;;5081326;28;20028;-77
2022/07/17 05:50:51;;;;;;;3.55;2.50;;;19.00;1.00;;;;;;5089392;28;20028;-77
2022/07/17 05:53:16;;;;;;;3.75;2.55;;;19.00;1.00;;;;;;5087480;28;20020;-77
2022/07/17 05:55:42;;;;;;;4.75;2.50;;;19.00;1.00;;;;;;5089182;28;20526;-77
2022/07/17 05:58:08;;;;;;;3.80;2.70;;;19.10;1.00;;;;;;5089278;28;20074;-78
2022/07/17 06:00:34;;;;;;;4.68;2.80;;;19.20;1.00;;;;;;5088917;28;20029;-77
2022/07/17 06:03:01;;;;;;;4.90;2.83;;;19.30;1.00;;;;;;5090412;28;20020;-78
2022/07/17 06:05:26;;;;;;;2.78;2.47;;;19.40;1.00;;;;;;5088959;28;20586;-78
2022/07/17 06:07:53;;;;;;;3.03;2.58;;;19.30;1.00;;;;;;5088883;28;20111;-77
2022/07/17 06:10:19;;;;;;;4.35;2.80;;;19.50;1.00;;;;;;5092539;28;20040;-77
2022/07/17 06:12:45;;;;;;;4.35;3.03;;;19.50;1.00;;;;;;5093135;28;20129;-78
2022/07/17 06:15:10;;;;;;;3.17;2.63;;;19.50;1.00;;;;;;5094857;28;20034;-77
2022/07/17 06:17:36;;;;;;;5.95;2.85;;;19.70;1.00;;;;;;5092994;28;20492;-77
2022/07/17 06:20:04;;;;;;;5.93;2.70;;;19.80;1.00;;;;;;5092411;28;20107;-77
2022/07/17 06:22:30;;;;;;;2.95;2.50;;;19.80;1.00;;;;;;5091868;28;20096;-77
2022/07/17 06:24:55;;;;;;;3.97;2.50;;;19.80;1.00;;;;;;5092945;28;20032;-77
2022/07/17 06:27:21;;;;;;;3.33;2.38;;;19.80;1.00;;;;;;5093372;28;20392;-77
2022/07/17 06:29:47;;;;;;;7.65;2.70;;;19.90;1.00;;;;;;5093679;28;20044;-77
2022/07/17 06:32:13;;;;;;;4.13;2.47;;;20.00;1.00;;;;;;5091246;28;20027;-77
2022/07/17 06:34:39;;;;;;;4.80;2.70;;;19.90;1.00;;;;;;5092190;28;20027;-75
2022/07/17 06:37:05;;;;;;;3.72;2.30;;;20.10;1.00;;;;;;5091773;28;20114;-78
2022/07/17 06:39:31;;;;;;;5.28;2.50;;;20.30;1.00;;;;;;5092705;28;20896;-78
2022/07/17 06:41:56;;;;;;;3.55;2.55;;;20.40;1.00;;;;;;5092575;28;20389;-79
2022/07/17 06:44:22;;;;;;;5.05;2.47;;;20.50;1.00;;;;;;5092029;28;20354;-78
2022/07/17 06:46:48;;;;;;;3.78;2.67;;;20.50;1.00;;;;;;5091958;28;20031;-78
2022/07/17 06:49:14;;;;;;;3.95;2.60;;;20.60;1.00;;;;;;5091553;28;20077;-80
2022/07/17 06:51:40;;;;;;;4.78;2.40;;;20.60;1.00;;;;;;5091675;28;20031;-78
2022/07/17 06:54:06;;;;;;;4.28;2.60;;;20.70;1.00;;;;;;5093508;28;20028;-78
2022/07/17 06:56:31;;;;;;;5.35;2.60;;;20.70;1.00;;;;;;5092198;28;20024;-78
2022/07/17 06:58:57;;;;;;;7.00;2.40;;;20.80;1.00;;;;;;5091778;28;20518;-79
2022/07/17 07:01:23;;;;;;;2.63;2.42;;;20.80;1.00;;;;;;5091815;28;20036;-78
2022/07/17 07:03:48;;;;;;;4.88;2.45;;;21.10;1.00;;;;;;5091313;28;20357;-78
2022/07/17 07:06:14;;;;;;;5.53;3.00;;;21.10;1.00;;;;;;5092741;28;20111;-78
2022/07/17 07:08:40;;;;;;;3.90;2.90;;;21.00;1.00;;;;;;5092297;28;20377;-78
2022/07/17 07:11:06;;;;;;;2.70;2.50;;;21.00;1.00;;;;;;5090245;28;20012;-78
2022/07/17 07:13:32;;;;;;;4.38;2.45;;;21.00;1.00;;;;;;5091387;28;20122;-78
2022/07/17 07:15:57;;;;;;;5.20;2.50;;;21.10;1.00;;;;;;5092012;28;20020;-79
2022/07/17 07:18:23;;;;;;;4.53;2.88;;;21.20;1.00;;;;;;5091697;28;20111;-78
2022/07/17 07:20:49;;;;;;;4.35;2.85;;;21.20;1.00;;;;;;5092315;28;20043;-78
2022/07/17 07:23:14;;;;;;;4.30;2.50;;;21.20;1.00;;;;;;5091651;28;20043;-78
2022/07/17 07:25:40;;;;;;;4.53;2.67;;;21.30;1.00;;;;;;5091257;28;20032;-78
2022/07/17 07:28:06;;;;;;;3.13;2.60;;;21.40;1.00;;;;;;5091007;28;20504;-78
2022/07/17 07:30:32;;;;;;;5.47;2.75;;;21.50;1.00;;;;;;5090694;28;20048;-78
2022/07/17 07:32:57;;;;;;;3.92;2.42;;;21.60;1.00;;;;;;5075533;28;20047;-78
2022/07/17 07:35:23;;;;;;;5.43;2.75;;;21.70;1.00;;;;;;5090673;28;20120;-78
2022/07/17 07:37:49;;;;;;;5.00;2.60;;;21.70;1.00;;;;;;5090859;28;20024;-78
2022/07/17 07:40:15;;;;;;;3.33;2.72;;;21.80;1.00;;;;;;5090892;28;20036;-78
2022/07/17 07:42:41;;;;;;;4.30;2.80;;;21.90;1.00;;;;;;5091449;28;20047;-78
2022/07/17 07:45:07;;;;;;;3.65;2.60;;;22.20;1.00;;;;;;5093113;28;20024;-78
2022/07/17 07:47:39;;;;;;;3.38;2.60;;;22.10;1.00;;;;;;5090681;28;20088;-78
2022/07/17 07:50:05;;;;;;;3.08;2.50;;;22.10;1.00;;;;;;5089417;28;20378;-78
2022/07/17 07:52:31;;;;;;;4.00;2.70;;;22.20;1.00;;;;;;5090069;28;20442;-79
2022/07/17 07:54:57;;;;;;;4.05;2.58;;;22.10;1.00;;;;;;5091042;28;20032;-79
2022/07/17 07:57:22;;;;;;;3.33;2.58;;;22.20;1.00;;;;;;5091218;28;20024;-79
2022/07/17 07:59:48;;;;;;;3.75;2.72;;;22.20;1.00;;;;;;5092403;28;20507;-79
2022/07/17 08:02:13;;;;;;;6.47;3.25;;;22.30;1.00;;;;;;5090395;28;20036;-79
2022/07/17 08:04:39;;;;;;;2.88;2.45;;;22.40;1.00;;;;;;5090056;28;20044;-79
2022/07/17 08:07:05;;;;;;;4.22;2.63;;;22.40;1.00;;;;;;5090879;28;20434;-79
2022/07/17 08:09:30;;;;;;;4.85;3.10;;;22.40;1.00;;;;;;5090412;28;20036;-79
2022/07/17 08:11:56;;;;;;;5.15;2.53;;;22.40;1.00;;;;;;5092579;28;20031;-79
2022/07/17 08:14:22;;;;;;;4.30;2.80;;;22.40;1.00;;;;;;5090325;28;20455;-79
2022/07/17 08:16:47;;;;;;;4.50;2.80;;;22.60;1.00;;;;;;5090210;28;20078;-79
2022/07/17 08:19:13;;;;;;;6.45;2.75;;;22.70;1.00;;;;;;5089885;28;20108;-79
2022/07/17 08:21:38;;;;;;;4.55;2.45;;;22.70;1.00;;;;;;5055974;28;20508;-80
2022/07/17 08:24:04;;;;;;;5.40;2.70;;;22.70;1.00;;;;;;5092153;28;20024;-79
2022/07/17 08:26:30;;;;;;;3.03;2.72;;;22.70;1.00;;;;;;5089930;28;20396;-79
2022/07/17 08:28:55;;;;;;;4.80;2.70;;;22.70;1.00;;;;;;5088896;28;20079;-79
2022/07/17 08:31:21;;;;;;;3.75;2.83;;;22.90;1.00;;;;;;5089225;28;20024;-79
2022/07/17 08:33:47;;;;;;;4.50;2.53;;;23.10;1.00;;;;;;5087220;28;20029;-79
2022/07/17 08:36:12;;;;;;;4.90;2.95;;;23.10;1.00;;;;;;5091405;28;20086;-79
2022/07/17 08:38:38;;;;;;;2.60;2.40;;;23.20;1.00;;;;;;5090343;28;20058;-79
2022/07/17 08:41:04;;;;;;;4.53;2.75;;;23.30;1.00;;;;;;5089933;28;20028;-79
2022/07/17 08:43:30;;;;;;;4.75;2.85;;;23.40;1.00;;;;;;5089924;28;20032;-79
2022/07/17 08:45:58;;;;;;;6.45;2.90;;;23.60;1.00;;;;;;5089575;28;20059;-79
2022/07/17 08:48:27;;;;;;;3.53;2.70;;;23.80;1.00;;;;;;5072032;28;20111;-79
2022/07/17 08:50:55;;;;;;;3.17;2.50;;;23.90;1.00;;;;;;5089848;28;20135;-79
2022/07/17 08:53:21;;;;;;;3.53;2.97;;;24.10;1.00;;;;;;5089636;28;20030;-80
2022/07/17 08:55:47;;;;;;;3.42;3.00;;;23.90;1.00;;;;;;5089862;28;20023;-80
2022/07/17 08:58:19;;;;;;;3.38;2.63;;;23.80;1.00;;;;;;5089442;28;20035;-80
2022/07/17 09:00:45;;;;;;;3.47;2.88;;;23.90;1.00;;;;;;5074349;28;20447;-79
2022/07/17 09:03:11;;;;;;;4.28;2.85;;;23.90;1.00;;;;;;5091583;28;20028;-81
2022/07/17 09:05:41;;;;;;;3.55;2.67;;;24.10;1.00;;;;;;5090181;28;20024;-79
2022/07/17 09:08:16;;;;;;;7.20;3.05;;;24.30;1.00;;;;;;5088055;28;20016;-79
2022/07/17 09:10:45;;;;;;;3.53;2.80;;;24.20;1.00;;;;;;5089371;28;20020;-79
2022/07/17 09:13:31;;;;;;;3.85;2.70;;;24.30;1.00;;;;;;5089479;28;20058;-79
2022/07/17 09:16:08;;;;;;;3.38;2.92;;;24.20;1.00;;;;;;5074191;28;20103;-79
2022/07/17 09:18:53;;;;;;;4.70;3.00;;;24.50;1.00;;;;;;5089294;28;20484;-79
2022/07/17 09:21:27;;;;;;;4.53;2.70;;;24.60;1.00;;;;;;5087583;28;20036;-79
2022/07/17 09:24:00;;;;;;;5.63;2.80;;;24.70;1.00;;;;;;5089722;28;20039;-79
2022/07/17 09:26:26;;;;;;;4.00;2.60;;;24.60;1.00;;;;;;5089518;28;20028;-78
2022/07/17 09:28:52;;;;;;;2.88;2.55;;;24.80;1.00;;;;;;5089153;28;20036;-80
2022/07/17 09:31:30;;;;;;;4.50;3.03;;;24.90;1.00;;;;;;5089345;28;20024;-79
2022/07/17 09:33:56;;;;;;;3.28;2.70;;;25.00;1.00;;;;;;5089380;28;20080;-79
2022/07/17 09:36:23;;;;;;;4.50;3.05;;;25.10;1.00;;;;;;5090056;28;20039;-79
2022/07/17 09:38:53;;;;;;;3.35;3.05;;;25.30;1.00;;;;;;5091096;28;20028;-79
2022/07/17 09:41:21;;;;;;;3.70;2.85;;;25.40;1.00;;;;;;5089340;28;20534;-79
2022/07/17 09:43:58;;;;;;;3.55;2.83;;;25.40;1.00;;;;;;5091718;28;20506;-79
2022/07/17 09:46:32;;;;;;;3.85;2.58;;;25.30;1.00;;;;;;5091173;28;20039;-79
2022/07/17 09:49:04;;;;;;;4.85;3.00;;;25.30;1.00;;;;;;5093090;28;20027;-79
2022/07/17 09:51:32;;;;;;;3.85;3.08;;;25.40;1.00;;;;;;5093020;28;20480;-79
2022/07/17 09:54:01;;;;;;;4.35;3.03;;;25.60;1.00;;;;;;5094731;28;20028;-79
2022/07/17 09:56:31;;;;;;;3.60;2.88;;;25.70;1.00;;;;;;5091636;28;20124;-80
2022/07/17 09:59:02;;;;;;;3.10;2.58;;;25.70;1.00;;;;;;5092584;28;20031;-79
2022/07/17 10:01:28;;;;;;;3.58;2.97;;;25.90;1.00;;;;;;5092267;28;20044;-79
2022/07/17 10:03:54;;;;;;;5.18;3.00;;;25.90;1.00;;;;;;5093349;28;20519;-79
2022/07/17 10:06:21;;;;;;;5.93;3.22;;;25.80;1.00;;;;;;5093933;28;20036;-78
2022/07/17 10:08:47;;;;;;;3.58;3.28;;;25.70;1.00;;;;;;5094040;28;20016;-79
2022/07/17 10:11:16;;;;;;;3.72;3.17;;;25.60;1.00;;;;;;5093012;28;20030;-79
2022/07/17 10:13:45;;;;;;;3.15;2.85;;;25.70;1.00;;;;;;5091907;28;20024;-80
2022/07/17 10:16:11;;;;;;;3.35;3.00;;;25.90;1.00;;;;;;5092467;28;20492;-78
2022/07/17 10:18:42;;;;;;;3.50;3.20;;;25.90;1.00;;;;;;5092885;28;20024;-79
2022/07/17 10:21:15;;;;;;;6.15;3.75;;;25.90;1.00;;;;;;5090728;28;20127;-79
2022/07/17 10:24:05;;;;;;;5.30;4.80;;;26.30;1.00;;;;;;5091125;28;20028;-79
2022/07/17 10:26:36;;;;;;;4.70;3.08;;;26.30;1.00;;;;;;5092074;28;20047;-79
2022/07/17 10:29:03;;;;;;;3.17;2.88;;;26.40;1.00;;;;;;5091543;28;20035;-79
2022/07/17 10:31:30;;;;;;;5.30;3.22;;;26.40;1.00;;;;;;5074218;28;20496;-79
2022/07/17 10:34:04;;;;;;;2.85;2.65;;;26.40;1.00;;;;;;5092480;28;20031;-79
2022/07/17 10:36:40;;;;;;;4.72;3.03;;;26.40;1.00;;;;;;5092644;28;20032;-79
2022/07/17 10:39:17;;;;;;;3.92;3.05;;;26.60;1.00;;;;;;5094063;28;20024;-79
2022/07/17 10:41:57;;;;;;;3.75;2.95;;;26.90;1.00;;;;;;5091513;28;20039;-80
2022/07/17 10:44:27;;;;;;;4.55;2.88;;;26.90;1.00;;;;;;5091387;28;20028;-79
2022/07/17 10:46:54;;;;;;;4.60;3.20;;;26.80;1.00;;;;;;5091972;28;20028;-79
2022/07/17 10:49:20;;;;;;;6.40;4.30;;;26.90;1.00;;;;;;5091585;28;20024;-78
2022/07/17 10:51:47;;;;;;;3.65;3.22;;;27.10;1.00;;;;;;5073992;28;22349;-79
2022/07/17 10:54:12;;;;;;;6.22;3.03;;;27.10;1.00;;;;;;5092008;28;20028;-79
2022/07/17 10:56:41;;;;;;;4.88;3.08;;;27.20;1.00;;;;;;5092484;28;20494;-79
2022/07/17 10:59:07;;;;;;;6.40;3.70;;;27.20;1.00;;;;;;5091276;28;20051;-81
2022/07/17 11:01:33;;;;;;;4.60;3.10;;;27.20;1.00;;;;;;5091060;28;20075;-80
2022/07/17 11:04:01;;;;;;;5.65;3.22;;;27.10;1.00;;;;;;5090200;28;20029;-80
2022/07/17 11:06:30;;;;;;;3.67;3.20;;;27.10;1.00;;;;;;5091739;28;20031;-79
2022/07/17 11:08:57;;;;;;;4.03;3.35;;;27.20;1.00;;;;;;5093921;28;20082;-90
2022/07/17 11:11:40;;;;;;;4.95;3.10;;;27.50;1.00;;;;;;5091272;28;20028;-83
2022/07/17 11:14:16;;;;;;;3.72;3.15;;;27.30;1.00;;;;;;5091716;28;20028;-79
2022/07/17 11:16:47;;;;;;;7.00;3.92;;;27.40;1.00;;;;;;5090925;28;20073;-79
2022/07/17 11:19:31;;;;;;;5.07;3.47;;;27.40;1.00;;;;;;5091430;28;20071;-79
2022/07/17 11:21:57;;;;;;;3.17;2.88;;;27.40;1.00;;;;;;5077930;28;20028;-80
2022/07/17 11:24:25;;;;;;;6.22;4.60;;;27.60;1.00;;;;;;5091773;28;20021;-76
2022/07/17 11:26:52;;;;;;;2.90;2.70;;;27.60;1.00;;;;;;5093234;28;20530;-77
2022/07/17 11:29:18;;;;;;;6.15;3.00;;;27.80;1.00;;;;;;5090505;28;20123;-76
2022/07/17 11:31:44;;;;;;;3.75;2.90;;;27.80;1.00;;;;;;5091541;28;20484;-76
2022/07/17 11:34:11;;;;;;;4.85;3.22;;;28.00;1.00;;;;;;5091107;28;20050;-76
2022/07/17 11:36:39;;;;;;;4.22;3.17;;;28.00;1.00;;;;;;5091042;28;20408;-76
2022/07/17 11:39:10;;;;;;;3.90;3.50;;;28.20;1.00;;;;;;5093224;28;20165;-77
2022/07/17 11:41:43;;;;;;;4.55;3.10;;;28.20;1.00;;;;;;5090850;28;20539;-76
2022/07/17 11:44:12;;;;;;;3.70;3.03;;;28.40;1.00;;;;;;5089384;28;20063;-77
2022/07/17 11:46:40;;;;;;;3.15;2.85;;;28.70;1.00;;;;;;5090779;28;20035;-76
2022/07/17 11:49:06;;;;;;;3.80;3.08;;;28.90;1.00;;;;;;5090429;28;20024;-76
2022/07/17 11:51:43;;;;;;;3.97;3.10;;;29.40;1.00;;;;;;5090419;28;20405;-77
2022/07/17 11:54:15;;;;;;;5.20;3.00;;;30.50;1.00;;;;;;5089000;28;20024;-76
2022/07/17 11:56:42;;;;;;;4.57;3.30;;;32.20;1.00;;;;;;5089424;28;20024;-76
2022/07/17 11:59:08;;;;;;;3.78;2.83;;;34.20;1.00;;;;;;5090564;28;20115;-77
2022/07/17 12:01:43;;;;;;;4.65;3.70;;;34.70;1.00;;;;;;5090455;28;20051;-77
2022/07/17 12:04:10;;;;;;;3.45;3.15;;;36.40;1.00;;;;;;5090602;28;20023;-77
2022/07/17 12:06:37;;;;;;;6.05;3.25;;;37.70;1.00;;;;;;5090616;28;20024;-77
2022/07/17 12:09:04;;;;;;;3.47;3.03;;;37.80;1.00;;;;;;5092855;28;20475;-77
2022/07/17 12:11:30;;;;;;;4.22;3.40;;;37.40;1.00;;;;;;5089918;28;20046;-77
2022/07/17 12:14:04;;;;;;;5.80;3.17;;;38.60;1.00;;;;;;5090128;28;20492;-77
2022/07/17 12:16:31;;;;;;;7.07;3.20;;;39.70;1.00;;;;;;5090859;28;20551;-77
2022/07/17 12:19:00;;;;;;;3.83;3.05;;;40.10;1.00;;;;;;5090246;28;20027;-77
2022/07/17 12:21:26;;;;;;;3.63;3.13;;;41.20;1.00;;;;;;5091198;28;20043;-77
2022/07/17 12:24:05;;;;;;;4.22;2.78;;;42.20;1.00;;;;;;5089432;28;20016;-78
2022/07/17 12:26:32;;;;;;;4.28;2.53;;;42.00;1.00;;;;;;5090188;28;20032;-77
2022/07/17 12:28:59;;;;;;;5.28;2.78;;;41.60;1.00;;;;;;5090364;28;20035;-77
2022/07/17 12:31:25;;;;;;;3.42;2.85;;;42.40;1.00;;;;;;5089705;28;20507;-77
2022/07/17 12:33:53;;;;;;;5.15;2.70;;;42.30;1.00;;;;;;5089850;28;20024;-77
2022/07/17 12:36:20;;;;;;;3.55;3.00;;;41.60;1.00;;;;;;5092285;28;20031;-78
2022/07/17 12:38:45;;;;;;;3.20;2.95;;;41.00;1.00;;;;;;5090941;28;20060;-78
2022/07/17 12:41:11;;;;;;;4.50;2.55;;;41.50;1.00;;;;;;5089208;28;20078;-78
2022/07/17 12:43:37;;;;;;;3.55;2.67;;;41.40;1.00;;;;;;5089764;28;20073;-76
2022/07/17 12:46:03;;;;;;;4.25;2.90;;;41.00;1.00;;;;;;5089666;28;20035;-76
2022/07/17 12:48:29;;;;;;;3.75;2.72;;;41.40;1.00;;;;;;5090195;28;20052;-78
2022/07/17 12:50:54;;;;;;;3.65;2.72;;;41.20;1.00;;;;;;5091464;28;20111;-77
2022/07/17 12:53:20;;;;;;;2.75;2.55;;;40.50;1.00;;;;;;5089156;28;20034;-78
2022/07/17 12:55:45;;;;;;;3.80;2.40;;;40.60;1.00;;;;;;5089395;28;20472;-78
2022/07/17 12:58:11;;;;;;;2.70;2.47;;;40.90;1.00;;;;;;5087772;28;20073;-78